Time;durP1;ratioP1;P1;durP2;ratioP2;P2;SDS_P1;SDS_P2;PMS_P1;PMS_P2;Temp;Humidity;BMP_temperature;BMP_pressure;BME280_temperature;BME280_humidity;BME280_pressure;Samples;Min_cycle;Max_cycle;Signal;HPM_P1;HPM_P2
2023/01/28 00:01:10;;;;;;;6.87;3.83;;;2.80;99.90;;;;;;5059839;28;20127;-67
2023/01/28 00:03:36;;;;;;;8.05;3.70;;;2.70;99.90;;;;;;5061519;28;20545;-67
2023/01/28 00:06:05;;;;;;;6.57;3.03;;;2.70;99.90;;;;;;5052878;28;20431;-68
2023/01/28 00:08:32;;;;;;;5.32;3.42;;;2.80;99.90;;;;;;5063516;28;20089;-67
2023/01/28 00:11:00;;;;;;;5.55;3.50;;;2.80;99.90;;;;;;5058937;28;20041;-67
2023/01/28 00:13:26;;;;;;;6.03;3.13;;;2.80;99.90;;;;;;5061535;28;20545;-67
2023/01/28 00:15:57;;;;;;;7.88;3.20;;;2.70;99.90;;;;;;5053863;28;20082;-68
2023/01/28 00:18:24;;;;;;;6.20;4.07;;;2.70;99.90;;;;;;5057677;28;20052;-68
2023/01/28 00:21:16;;;;;;;4.97;2.80;;;2.80;99.90;;;;;;5058314;28;20044;-68
2023/01/28 00:23:46;;;;;;;5.30;3.45;;;2.70;99.90;;;;;;5056027;28;20148;-67
2023/01/28 00:26:13;;;;;;;5.32;3.30;;;2.80;99.90;;;;;;5059630;28;20139;-67
2023/01/28 00:28:40;;;;;;;3.83;2.45;;;2.70;99.90;;;;;;5057056;28;20211;-67
2023/01/28 00:31:15;;;;;;;;;;;2.70;99.90;;;;;;5057116;28;20049;-67
2023/01/28 00:33:42;;;;;;;5.15;2.88;;;2.70;99.90;;;;;;5055867;28;19927;-68
2023/01/28 00:36:08;;;;;;;5.85;3.03;;;2.70;99.90;;;;;;5054325;28;20048;-68
2023/01/28 00:38:34;;;;;;;5.13;2.97;;;2.70;99.90;;;;;;5063973;28;20182;-67
2023/01/28 00:41:14;;;;;;;5.75;3.00;;;2.80;99.90;;;;;;5053987;28;20040;-67
2023/01/28 00:43:41;;;;;;;3.97;2.63;;;2.70;99.90;;;;;;5049942;28;20415;-67
2023/01/28 00:46:09;;;;;;;7.35;3.42;;;2.70;99.90;;;;;;5058968;28;20449;-67
2023/01/28 00:48:36;;;;;;;6.22;3.95;;;2.70;99.90;;;;;;5056680;28;20041;-67
2023/01/28 00:51:02;;;;;;;5.20;3.15;;;2.70;99.90;;;;;;5064063;28;20052;-67
2023/01/28 00:53:28;;;;;;;5.03;3.22;;;2.70;99.90;;;;;;5042382;28;20072;-66
2023/01/28 00:55:54;;;;;;;6.13;3.30;;;2.70;99.90;;;;;;5062910;28;20052;-67
2023/01/28 00:58:21;;;;;;;3.43;2.40;;;2.70;99.90;;;;;;5060286;28;20197;-68
2023/01/28 01:00:47;;;;;;;4.57;2.80;;;2.80;99.90;;;;;;5060573;28;20355;-67
2023/01/28 01:03:13;;;;;;;5.27;3.10;;;2.80;99.90;;;;;;5062748;28;20064;-69
2023/01/28 01:05:38;;;;;;;5.13;3.07;;;2.70;99.90;;;;;;5060358;28;20109;-67
2023/01/28 01:08:04;;;;;;;5.70;3.50;;;2.70;99.90;;;;;;5062191;28;20043;-67
2023/01/28 01:10:30;;;;;;;5.90;3.20;;;2.80;99.90;;;;;;5063474;28;20457;-67
2023/01/28 01:12:57;;;;;;;5.03;3.10;;;2.70;99.90;;;;;;5056266;28;20123;-67
2023/01/28 01:15:23;;;;;;;6.25;3.63;;;2.70;99.90;;;;;;5063964;28;20048;-67
2023/01/28 01:17:50;;;;;;;6.33;3.67;;;2.70;99.90;;;;;;5054784;28;20304;-68
2023/01/28 01:20:20;;;;;;;5.25;3.17;;;2.70;99.90;;;;;;5066427;28;20450;-67
2023/01/28 01:22:46;;;;;;;6.70;3.08;;;2.70;99.90;;;;;;5054947;28;20498;-68
2023/01/28 01:25:17;;;;;;;5.87;3.30;;;2.70;99.90;;;;;;5059449;28;20032;-67
2023/01/28 01:27:44;;;;;;;5.32;3.50;;;2.70;99.90;;;;;;5076576;22;20045;-64
2023/01/28 01:30:11;;;;;;;5.35;3.10;;;2.80;99.90;;;;;;5057961;28;20486;-66
2023/01/28 01:32:37;;;;;;;3.60;2.50;;;2.70;99.90;;;;;;5056994;28;20143;-66
2023/01/28 01:35:06;;;;;;;4.65;2.60;;;2.80;99.90;;;;;;5065596;28;20579;-65
2023/01/28 01:37:35;;;;;;;4.65;2.78;;;2.70;99.90;;;;;;5031118;28;20468;-66
2023/01/28 01:40:03;;;;;;;5.85;2.75;;;2.70;99.90;;;;;;5048916;28;20047;-66
2023/01/28 01:42:31;;;;;;;4.75;3.08;;;2.70;99.90;;;;;;5049044;28;20145;-66
2023/01/28 01:45:12;;;;;;;4.97;3.05;;;2.80;99.90;;;;;;5049189;28;20045;-66
2023/01/28 01:47:47;;;;;;;6.25;3.30;;;2.80;99.90;;;;;;5043796;28;20044;-66
2023/01/28 01:50:41;;;;;;;5.93;3.35;;;2.80;99.90;;;;;;5030492;28;20040;-66
2023/01/28 01:53:17;;;;;;;5.28;3.38;;;2.70;99.90;;;;;;5031738;28;20056;-66
2023/01/28 01:55:47;;;;;;;4.65;2.50;;;2.70;99.90;;;;;;5041785;28;20506;-66
2023/01/28 01:58:16;;;;;;;4.22;2.72;;;2.70;99.90;;;;;;5021784;28;20044;-66
2023/01/28 02:00:42;;;;;;;3.60;2.22;;;2.70;99.90;;;;;;5046432;28;20055;-66
2023/01/28 02:03:09;;;;;;;7.13;2.25;;;2.70;99.90;;;;;;5028055;28;20045;-66
2023/01/28 02:05:36;;;;;;;4.30;2.70;;;2.80;99.90;;;;;;5023422;28;20470;-66
2023/01/28 02:08:20;;;;;;;6.18;2.70;;;2.70;99.90;;;;;;5023367;28;20476;-66
2023/01/28 02:10:51;;;;;;;5.13;2.92;;;2.80;99.90;;;;;;5046211;28;20077;-66
2023/01/28 02:13:20;;;;;;;5.78;3.00;;;2.70;99.90;;;;;;5045072;28;20401;-66
2023/01/28 02:15:46;;;;;;;3.35;1.98;;;2.80;99.90;;;;;;5020792;28;20053;-66
2023/01/28 02:18:12;;;;;;;4.35;2.38;;;2.80;99.90;;;;;;5028308;28;20533;-66
2023/01/28 02:21:16;;;;;;;3.63;2.13;;;2.80;99.90;;;;;;5044176;28;20041;-66
2023/01/28 02:24:00;;;;;;;3.50;2.15;;;2.80;99.90;;;;;;5025846;28;20051;-66
2023/01/28 02:27:10;;;;;;;3.63;2.10;;;2.80;99.90;;;;;;5044583;28;20033;-66
2023/01/28 02:30:15;;;;;;;2.65;1.80;;;2.80;99.90;;;;;;4980686;28;20030;-66
2023/01/28 02:32:47;;;;;;;3.72;2.25;;;2.70;99.90;;;;;;5044134;28;20510;-66
2023/01/28 02:35:22;;;;;;;4.43;2.15;;;2.70;99.90;;;;;;5045692;28;20068;-66
2023/01/28 02:37:58;;;;;;;4.07;2.33;;;2.70;99.90;;;;;;5043844;28;20049;-66
2023/01/28 02:41:01;;;;;;;4.03;2.00;;;2.70;99.90;;;;;;5043480;28;20037;-67
2023/01/28 02:43:38;;;;;;;3.47;2.17;;;2.70;99.90;;;;;;5024938;28;20053;-66
2023/01/28 02:49:47;;;;;;;3.65;2.38;;;2.70;99.90;;;;;;5035113;28;20259;-66
2023/01/28 02:55:23;;;;;;;4.10;2.58;;;2.70;99.90;;;;;;5044035;28;20072;-66
2023/01/28 02:57:59;;;;;;;4.25;2.58;;;2.70;99.90;;;;;;5042901;28;20106;-65
2023/01/28 03:00:27;;;;;;;3.42;1.90;;;2.80;99.90;;;;;;5050156;28;20398;-65
2023/01/28 03:03:03;;;;;;;3.80;2.10;;;2.80;99.90;;;;;;5053096;28;20129;-66
2023/01/28 03:05:35;;;;;;;5.63;3.15;;;2.70;99.90;;;;;;5019491;28;20128;-65
2023/01/28 03:09:21;;;;;;;4.38;2.40;;;2.70;99.90;;;;;;5019268;28;20049;-65
2023/01/28 03:38:58;;;;;;;4.20;2.42;;;2.70;99.90;;;;;;5044881;28;20098;-65
2023/01/28 03:41:25;;;;;;;4.43;2.20;;;2.80;99.90;;;;;;5021908;28;20057;-66
2023/01/28 03:43:52;;;;;;;4.55;2.20;;;2.80;99.90;;;;;;5022298;28;20047;-66
2023/01/28 03:46:17;;;;;;;;;;;2.80;99.90;;;;;;5045609;28;20109;-66
2023/01/28 03:48:44;;;;;;;4.50;2.72;;;2.80;99.90;;;;;;5045367;28;20357;-66
2023/01/28 03:51:10;;;;;;;3.80;2.40;;;2.70;99.90;;;;;;5026467;28;20029;-66
2023/01/28 03:53:39;;;;;;;4.00;1.73;;;2.70;99.90;;;;;;5027275;28;20044;-66
2023/01/28 03:56:05;;;;;;;3.65;2.30;;;2.70;99.90;;;;;;5040808;28;20041;-66
2023/01/28 04:01:26;;;;;;;4.65;2.28;;;2.80;99.90;;;;;;5029419;28;20247;-65
2023/01/28 04:03:51;;;;;;;3.90;2.00;;;2.70;99.90;;;;;;5044199;28;20112;-65
2023/01/28 04:06:18;;;;;;;3.95;2.15;;;2.70;99.90;;;;;;5040351;28;20457;-65
2023/01/28 04:08:47;;;;;;;3.23;1.90;;;2.70;99.90;;;;;;5045028;28;20049;-66
2023/01/28 04:11:18;;;;;;;4.15;2.25;;;2.80;99.90;;;;;;5046055;28;20033;-66
2023/01/28 04:13:47;;;;;;;4.22;2.28;;;2.70;99.90;;;;;;5044873;28;20040;-65
2023/01/28 04:16:15;;;;;;;3.25;2.20;;;2.70;99.90;;;;;;5044573;28;20627;-65
2023/01/28 04:18:42;;;;;;;2.88;1.80;;;2.70;99.90;;;;;;5042567;28;20055;-66
2023/01/28 04:21:08;;;;;;;3.60;2.50;;;2.70;99.90;;;;;;5030433;28;20123;-66
2023/01/28 04:23:34;;;;;;;3.20;2.10;;;2.70;99.90;;;;;;5048626;28;20045;-66
2023/01/28 04:26:00;;;;;;;4.53;2.50;;;2.70;99.90;;;;;;5047700;28;20091;-66
2023/01/28 04:28:26;;;;;;;8.30;2.63;;;2.70;99.90;;;;;;5048415;28;20029;-66
2023/01/28 04:30:52;;;;;;;3.80;2.50;;;2.70;99.90;;;;;;5026326;28;20037;-65
2023/01/28 04:33:18;;;;;;;4.75;2.55;;;2.70;99.90;;;;;;5048241;28;20111;-66
2023/01/28 04:35:43;;;;;;;6.50;2.40;;;2.70;99.90;;;;;;5047190;28;20044;-66
2023/01/28 04:38:09;;;;;;;4.20;2.33;;;2.70;99.90;;;;;;5048329;28;20037;-66
2023/01/28 04:40:34;;;;;;;4.33;2.70;;;2.70;99.90;;;;;;5053731;28;20037;-65
2023/01/28 04:43:00;;;;;;;3.17;2.03;;;2.70;99.90;;;;;;5025250;28;20075;-66
2023/01/28 04:45:26;;;;;;;4.00;2.27;;;2.60;99.90;;;;;;5048001;28;20450;-66
2023/01/28 04:47:51;;;;;;;5.63;2.47;;;2.60;99.90;;;;;;5054288;28;20125;-66
2023/01/28 04:50:17;;;;;;;6.40;3.57;;;2.60;99.90;;;;;;5027834;28;20432;-66
2023/01/28 04:52:43;;;;;;;3.30;2.00;;;2.60;99.90;;;;;;5036051;28;20208;-66
2023/01/28 04:55:09;;;;;;;4.20;2.40;;;2.60;99.90;;;;;;5049478;28;20029;-66
2023/01/28 04:57:35;;;;;;;3.95;2.20;;;2.60;99.90;;;;;;5035450;28;20039;-66
2023/01/28 05:00:00;;;;;;;3.77;2.20;;;2.60;99.90;;;;;;5048429;28;20116;-66
2023/01/28 05:02:26;;;;;;;4.77;2.50;;;2.60;99.90;;;;;;5059378;28;20059;-66
2023/01/28 05:04:52;;;;;;;4.27;2.57;;;2.60;99.90;;;;;;5044093;28;20044;-66
2023/01/28 05:07:17;;;;;;;4.47;2.60;;;2.60;99.90;;;;;;5027283;28;20387;-66
2023/01/28 05:09:43;;;;;;;3.63;2.27;;;2.60;99.90;;;;;;5049236;28;20049;-66
2023/01/28 05:12:09;;;;;;;4.43;2.60;;;2.60;99.90;;;;;;5031080;28;20044;-66
2023/01/28 05:14:34;;;;;;;5.13;2.83;;;2.50;99.90;;;;;;5043528;28;20057;-66
2023/01/28 05:17:00;;;;;;;3.47;2.10;;;2.50;99.90;;;;;;5050764;28;20375;-65
2023/01/28 05:19:25;;;;;;;5.97;2.67;;;2.50;99.90;;;;;;5049587;28;20311;-66
2023/01/28 05:21:51;;;;;;;4.40;2.53;;;2.50;99.90;;;;;;5034425;28;20098;-66
2023/01/28 05:24:17;;;;;;;6.03;2.50;;;2.50;99.90;;;;;;5042461;28;20068;-66
2023/01/28 05:26:42;;;;;;;3.33;1.93;;;2.50;99.90;;;;;;5047015;28;20304;-66
2023/01/28 05:29:08;;;;;;;4.53;2.93;;;2.50;99.90;;;;;;5047259;28;20072;-66
2023/01/28 05:31:34;;;;;;;4.90;2.60;;;2.50;99.90;;;;;;5045110;28;20375;-66
2023/01/28 05:33:59;;;;;;;5.93;2.73;;;2.50;99.90;;;;;;5047518;28;20037;-66
2023/01/28 05:36:25;;;;;;;4.53;2.33;;;2.50;99.90;;;;;;5047879;28;20133;-66
2023/01/28 05:38:51;;;;;;;4.50;2.43;;;2.50;99.90;;;;;;5028536;28;20045;-66
2023/01/28 05:41:17;;;;;;;3.87;2.30;;;2.50;99.90;;;;;;5027510;28;20131;-66
2023/01/28 05:43:43;;;;;;;3.85;2.42;;;2.50;99.90;;;;;;5025143;28;20053;-66
2023/01/28 05:46:08;;;;;;;3.77;2.40;;;2.50;99.90;;;;;;5047325;28;20094;-66
2023/01/28 05:48:34;;;;;;;5.20;2.80;;;2.50;99.90;;;;;;5044625;28;20037;-65
2023/01/28 05:51:00;;;;;;;4.57;2.60;;;2.40;99.90;;;;;;5050015;28;20043;-66
2023/01/28 05:53:26;;;;;;;4.25;2.70;;;2.40;99.90;;;;;;5053094;28;20217;-66
2023/01/28 05:55:52;;;;;;;4.33;2.60;;;2.40;99.90;;;;;;5044863;28;20406;-66
2023/01/28 05:58:19;;;;;;;5.22;2.92;;;2.40;99.90;;;;;;5040968;28;20135;-65
2023/01/28 06:00:44;;;;;;;;;;;2.50;99.90;;;;;;5029241;28;20049;-66
2023/01/28 06:03:10;;;;;;;6.10;2.88;;;2.40;99.90;;;;;;5024209;28;20221;-66
2023/01/28 06:05:36;;;;;;;4.37;2.50;;;2.40;99.90;;;;;;5025198;28;20147;-66
2023/01/28 06:08:02;;;;;;;3.77;2.27;;;2.40;99.90;;;;;;5045734;28;20511;-66
2023/01/28 06:10:27;;;;;;;5.07;3.00;;;2.40;99.90;;;;;;5054928;28;20115;-65
2023/01/28 06:12:53;;;;;;;3.57;2.20;;;2.40;99.90;;;;;;5041781;28;20217;-66
2023/01/28 06:15:19;;;;;;;4.93;2.63;;;2.40;99.90;;;;;;5042291;28;20325;-66
2023/01/28 06:17:44;;;;;;;5.47;2.77;;;2.40;99.90;;;;;;5031501;28;20041;-66
2023/01/28 06:20:10;;;;;;;4.90;2.73;;;2.40;99.90;;;;;;5046970;28;20391;-66
2023/01/28 06:22:36;;;;;;;4.82;2.75;;;2.40;99.90;;;;;;5050886;28;20071;-66
2023/01/28 06:25:01;;;;;;;5.30;3.10;;;2.40;99.90;;;;;;5045525;28;20102;-66
2023/01/28 06:27:27;;;;;;;4.33;2.47;;;2.30;99.90;;;;;;5048293;28;20368;-66
2023/01/28 06:29:52;;;;;;;5.03;2.60;;;2.30;99.90;;;;;;5046767;28;20033;-65
2023/01/28 06:32:18;;;;;;;4.37;2.50;;;2.30;99.90;;;;;;5027300;28;20134;-65
2023/01/28 06:34:44;;;;;;;4.87;3.03;;;2.30;99.90;;;;;;5045896;28;20549;-65
2023/01/28 06:37:12;;;;;;;5.00;2.77;;;2.30;99.90;;;;;;5019308;28;20585;-65
2023/01/28 06:39:38;;;;;;;5.20;2.83;;;2.40;99.90;;;;;;5025778;28;20048;-66
2023/01/28 06:42:04;;;;;;;4.30;2.23;;;2.40;99.90;;;;;;5027966;28;20085;-66
2023/01/28 06:44:29;;;;;;;6.03;3.13;;;2.30;99.90;;;;;;5045869;28;20102;-66
2023/01/28 06:46:55;;;;;;;4.17;2.70;;;2.30;99.90;;;;;;5028162;28;20141;-65
2023/01/28 06:49:20;;;;;;;4.60;3.20;;;2.30;99.90;;;;;;5045566;28;20037;-66
2023/01/28 06:51:47;;;;;;;4.23;2.63;;;2.30;99.90;;;;;;5027517;28;20186;-66
2023/01/28 06:54:12;;;;;;;5.82;2.53;;;2.30;99.90;;;;;;5027606;28;20055;-66
2023/01/28 06:56:38;;;;;;;4.90;2.67;;;2.30;99.90;;;;;;5041827;28;20052;-66
2023/01/28 06:59:04;;;;;;;4.57;2.80;;;2.30;99.90;;;;;;5021991;28;20073;-66
2023/01/28 07:01:29;;;;;;;5.33;3.03;;;2.30;99.90;;;;;;5037139;28;20063;-65
2023/01/28 07:03:55;;;;;;;6.67;2.80;;;2.30;99.90;;;;;;5027828;28;20444;-66
2023/01/28 07:06:21;;;;;;;4.85;2.83;;;2.30;99.90;;;;;;5045141;28;20037;-66
2023/01/28 07:08:47;;;;;;;4.57;2.87;;;2.30;99.90;;;;;;5040295;28;20152;-66
2023/01/28 07:11:13;;;;;;;4.77;2.73;;;2.30;99.90;;;;;;5043935;28;20156;-66
2023/01/28 07:13:38;;;;;;;5.82;2.85;;;2.30;99.90;;;;;;5045495;28;20055;-66
2023/01/28 07:16:05;;;;;;;5.97;3.57;;;2.30;99.90;;;;;;5025457;28;20123;-66
2023/01/28 07:18:30;;;;;;;7.35;3.70;;;2.30;99.90;;;;;;5044922;28;20033;-66
2023/01/28 07:20:56;;;;;;;5.40;3.00;;;2.20;99.90;;;;;;5045936;28;20044;-66
2023/01/28 07:23:22;;;;;;;7.27;3.70;;;2.20;99.90;;;;;;5044904;28;20041;-66
2023/01/28 07:25:47;;;;;;;9.07;4.43;;;2.10;99.90;;;;;;5029688;28;20503;-66
2023/01/28 07:28:13;;;;;;;6.33;3.43;;;2.10;99.90;;;;;;5054544;22;20037;-69
2023/01/28 07:30:38;;;;;;;10.20;4.47;;;2.00;99.90;;;;;;5078120;28;20048;-70
2023/01/28 07:33:04;;;;;;;8.23;3.97;;;2.00;99.90;;;;;;5083465;28;20036;-70
2023/01/28 07:35:31;;;;;;;8.90;4.27;;;1.90;99.90;;;;;;5085041;28;20048;-71
2023/01/28 07:37:58;;;;;;;;;;;1.90;99.90;;;;;;5053897;28;20040;-70
2023/01/28 07:40:25;;;;;;;7.63;3.95;;;1.80;99.90;;;;;;5063728;28;20339;-70
2023/01/28 07:42:52;;;;;;;9.95;4.68;;;1.80;99.90;;;;;;5060879;28;20131;-70
2023/01/28 07:45:17;;;;;;;7.95;4.45;;;1.80;99.90;;;;;;5051770;28;20493;-70
2023/01/28 07:47:43;;;;;;;7.13;3.47;;;1.80;99.90;;;;;;5068103;28;20175;-71
2023/01/28 07:50:10;;;;;;;6.43;3.37;;;1.70;99.90;;;;;;5065844;28;20061;-70
2023/01/28 07:52:43;;;;;;;7.97;4.30;;;1.80;99.90;;;;;;5063245;28;20033;-70
2023/01/28 07:55:14;;;;;;;6.03;3.72;;;1.70;99.90;;;;;;5062768;28;20048;-71
2023/01/28 07:57:53;;;;;;;7.47;4.55;;;1.70;99.90;;;;;;5061302;28;20071;-71
2023/01/28 08:00:20;;;;;;;8.05;4.10;;;1.70;99.90;;;;;;5071786;28;20055;-71
2023/01/28 08:02:47;;;;;;;5.63;3.58;;;1.70;99.90;;;;;;5068914;28;20377;-70
2023/01/28 08:05:17;;;;;;;7.13;3.90;;;1.80;99.90;;;;;;5068665;28;20121;-71
2023/01/28 08:07:44;;;;;;;6.50;3.72;;;1.80;99.90;;;;;;5071038;28;20047;-70
2023/01/28 08:10:11;;;;;;;6.22;3.55;;;1.80;99.90;;;;;;5065080;28;20559;-70
2023/01/28 08:12:37;;;;;;;6.38;3.50;;;1.80;99.90;;;;;;5071924;28;20044;-71
2023/01/28 08:15:04;;;;;;;5.78;3.65;;;1.80;99.90;;;;;;5070151;28;20041;-70
2023/01/28 08:17:30;;;;;;;6.90;3.65;;;1.90;99.90;;;;;;5063422;28;20061;-70
2023/01/28 08:19:56;;;;;;;8.03;4.37;;;1.90;99.90;;;;;;5078591;28;20040;-70
2023/01/28 08:22:27;;;;;;;7.40;4.20;;;1.90;99.90;;;;;;5069035;28;20040;-70
2023/01/28 08:24:53;;;;;;;7.65;4.28;;;1.90;99.90;;;;;;5071154;28;20055;-70
2023/01/28 08:27:19;;;;;;;15.33;4.87;;;2.00;99.90;;;;;;5067824;28;20037;-70
2023/01/28 08:29:44;;;;;;;8.20;4.37;;;2.00;99.90;;;;;;5077860;28;20448;-70
2023/01/28 08:32:10;;;;;;;8.50;3.97;;;2.00;99.90;;;;;;5073368;28;20047;-70
2023/01/28 08:34:36;;;;;;;7.38;4.60;;;2.10;99.90;;;;;;5071113;28;20111;-70
2023/01/28 08:37:01;;;;;;;8.70;4.47;;;2.10;99.90;;;;;;5069113;28;20048;-70
2023/01/28 08:39:27;;;;;;;7.33;4.30;;;2.10;99.90;;;;;;5071581;28;20062;-70
2023/01/28 08:41:52;;;;;;;9.17;5.13;;;2.20;99.90;;;;;;5069683;28;20131;-70
2023/01/28 08:44:18;;;;;;;7.17;4.20;;;2.20;99.90;;;;;;5064776;28;20036;-70
2023/01/28 08:46:44;;;;;;;8.20;4.10;;;2.20;99.90;;;;;;5068100;28;20067;-70
2023/01/28 08:49:09;;;;;;;8.83;4.60;;;2.30;99.90;;;;;;5075999;28;20491;-70
2023/01/28 08:51:35;;;;;;;13.40;5.90;;;2.30;99.90;;;;;;5072243;28;20040;-70
2023/01/28 08:54:01;;;;;;;11.33;5.87;;;2.30;99.90;;;;;;5079879;28;20085;-70
2023/01/28 08:56:27;;;;;;;13.03;5.93;;;2.30;99.90;;;;;;5060900;28;20097;-71
2023/01/28 08:58:52;;;;;;;9.63;5.00;;;2.30;99.90;;;;;;5063054;28;20044;-70
2023/01/28 09:01:18;;;;;;;10.83;5.07;;;2.30;99.90;;;;;;5073151;28;20040;-70
2023/01/28 09:03:43;;;;;;;7.63;4.17;;;2.40;99.90;;;;;;5062850;28;20037;-70
2023/01/28 09:06:09;;;;;;;9.57;4.73;;;2.40;99.90;;;;;;5075097;28;20068;-70
2023/01/28 09:08:35;;;;;;;10.57;5.00;;;2.50;99.90;;;;;;5070580;28;20468;-70
2023/01/28 09:11:00;;;;;;;10.20;5.50;;;2.40;99.90;;;;;;5067009;28;20764;-71
2023/01/28 09:13:28;;;;;;;11.43;5.17;;;2.50;99.90;;;;;;5068965;28;20116;-70
2023/01/28 09:15:54;;;;;;;11.25;4.88;;;2.50;99.90;;;;;;5066293;28;20040;-70
2023/01/28 09:18:20;;;;;;;8.88;4.38;;;2.60;99.90;;;;;;5074486;28;20055;-71
2023/01/28 09:20:46;;;;;;;7.05;4.22;;;2.60;99.90;;;;;;5080348;28;20048;-71
2023/01/28 09:23:12;;;;;;;8.40;4.30;;;2.60;99.90;;;;;;5069988;28;20189;-70
2023/01/28 09:25:38;;;;;;;9.32;5.47;;;2.70;99.90;;;;;;5067457;28;20122;-70
2023/01/28 09:28:04;;;;;;;8.00;4.88;;;2.60;99.90;;;;;;5067958;28;20120;-71
2023/01/28 09:30:30;;;;;;;12.23;5.53;;;2.70;99.90;;;;;;5063551;28;20537;-70
2023/01/28 09:32:57;;;;;;;10.35;5.80;;;2.70;99.90;;;;;;5072880;28;20055;-70
2023/01/28 09:35:23;;;;;;;11.27;5.57;;;2.70;99.90;;;;;;5068401;28;20040;-71
2023/01/28 09:37:50;;;;;;;10.33;4.73;;;2.70;99.90;;;;;;5066456;28;20048;-70
2023/01/28 09:40:28;;;;;;;11.45;4.97;;;2.70;99.90;;;;;;5066526;28;20037;-70
2023/01/28 09:43:14;;;;;;;6.57;4.35;;;2.80;99.90;;;;;;5062797;28;20040;-70
2023/01/28 09:45:44;;;;;;;10.20;4.47;;;2.80;99.90;;;;;;5048929;28;20059;-71
2023/01/28 09:48:14;;;;;;;8.43;4.68;;;2.90;99.90;;;;;;5068365;28;20087;-70
2023/01/28 09:50:44;;;;;;;7.93;4.45;;;2.90;99.90;;;;;;5068011;28;20047;-70
2023/01/28 09:53:15;;;;;;;8.65;4.65;;;3.00;99.90;;;;;;5058659;28;20059;-70
2023/01/28 09:55:53;;;;;;;13.90;5.95;;;3.10;99.90;;;;;;5066697;28;20436;-70
2023/01/28 09:58:19;;;;;;;8.13;4.22;;;3.10;99.90;;;;;;5064487;28;20074;-71
2023/01/28 10:01:16;;;;;;;8.93;3.60;;;3.20;99.90;;;;;;5067590;28;20095;-71
2023/01/28 10:04:21;;;;;;;8.10;5.07;;;3.30;99.90;;;;;;5067460;28;20046;-70
2023/01/28 10:07:26;;;;;;;7.35;4.50;;;3.40;99.90;;;;;;5069177;28;20830;-70
2023/01/28 10:10:33;;;;;;;7.20;4.10;;;3.40;99.90;;;;;;5062415;28;20097;-70
2023/01/28 10:13:05;;;;;;;8.05;4.57;;;3.40;99.90;;;;;;5071009;28;20093;-70
2023/01/28 10:15:49;;;;;;;6.75;3.90;;;3.30;99.90;;;;;;5065520;28;20032;-71
2023/01/28 10:18:14;;;;;;;5.45;3.63;;;3.20;99.90;;;;;;5068677;28;20486;-71
2023/01/28 10:20:54;;;;;;;8.07;4.13;;;3.20;99.90;;;;;;5070224;28;20040;-70
2023/01/28 10:23:47;;;;;;;6.97;4.07;;;3.30;99.90;;;;;;5069561;28;20044;-71
2023/01/28 10:26:38;;;;;;;9.15;4.20;;;3.40;99.90;;;;;;5067299;28;20033;-71
2023/01/28 10:29:15;;;;;;;7.13;3.97;;;3.60;99.90;;;;;;5074624;28;20037;-71
2023/01/28 10:31:58;;;;;;;7.03;3.75;;;3.90;99.90;;;;;;5062511;28;20402;-71
2023/01/28 10:34:24;;;;;;;8.32;4.35;;;4.10;99.90;;;;;;5071720;28;20398;-71
2023/01/28 10:36:50;;;;;;;8.40;4.20;;;4.20;99.90;;;;;;5065262;28;20375;-71
2023/01/28 10:39:20;;;;;;;7.95;4.10;;;4.30;99.90;;;;;;5065526;28;20424;-71
2023/01/28 10:41:45;;;;;;;7.57;3.90;;;4.30;99.90;;;;;;5071663;28;20044;-71
2023/01/28 10:44:44;;;;;;;10.93;3.83;;;4.30;99.90;;;;;;5067617;28;20093;-71
2023/01/28 10:47:15;;;;;;;7.88;4.10;;;4.30;99.90;;;;;;5071179;28;20040;-71
2023/01/28 10:49:51;;;;;;;7.55;4.05;;;4.30;99.90;;;;;;5073642;28;20068;-71
2023/01/28 10:52:17;;;;;;;9.45;4.15;;;4.30;99.90;;;;;;5067318;28;20059;-71
2023/01/28 10:54:43;;;;;;;6.47;3.90;;;4.40;99.90;;;;;;5066428;28;20045;-71
2023/01/28 10:57:16;;;;;;;8.98;3.95;;;4.40;99.90;;;;;;5065352;28;20098;-71
2023/01/28 10:59:42;;;;;;;7.32;3.80;;;4.40;99.90;;;;;;5062033;28;20522;-71
2023/01/28 11:02:23;;;;;;;7.82;4.05;;;4.40;99.90;;;;;;5062848;28;20325;-70
2023/01/28 11:05:00;;;;;;;7.05;3.85;;;4.40;99.90;;;;;;5061827;28;20498;-71
2023/01/28 11:07:26;;;;;;;6.72;3.58;;;4.50;99.90;;;;;;5065877;28;20041;-71
2023/01/28 11:09:52;;;;;;;9.63;4.07;;;4.50;99.90;;;;;;5061505;28;20037;-70
2023/01/28 11:12:26;;;;;;;6.93;4.20;;;4.60;99.90;;;;;;5066572;28;20093;-71
2023/01/28 11:15:04;;;;;;;7.18;3.70;;;4.60;99.90;;;;;;5067664;28;20044;-71
2023/01/28 11:17:33;;;;;;;7.28;4.00;;;4.60;99.90;;;;;;5070409;28;20044;-71
2023/01/28 11:20:08;;;;;;;7.72;4.25;;;4.70;99.90;;;;;;5069345;28;20040;-71
2023/01/28 11:22:40;;;;;;;8.98;4.50;;;4.80;99.90;;;;;;5064865;28;20398;-70
2023/01/28 11:25:28;;;;;;;6.50;3.38;;;4.80;99.90;;;;;;5063352;28;20047;-71
2023/01/28 11:27:54;;;;;;;9.43;3.45;;;4.90;99.90;;;;;;5068250;28;20040;-71
2023/01/28 11:30:27;;;;;;;6.90;3.83;;;4.90;99.90;;;;;;5070677;28;20098;-70
2023/01/28 11:32:59;;;;;;;6.88;3.70;;;4.90;99.90;;;;;;5064076;28;20047;-71
2023/01/28 11:35:29;;;;;;;8.25;4.68;;;5.00;99.90;;;;;;5069861;28;20210;-71
2023/01/28 11:37:59;;;;;;;6.55;3.40;;;4.90;99.90;;;;;;5057576;28;20039;-71
2023/01/28 11:40:26;;;;;;;8.02;4.05;;;4.90;99.90;;;;;;5059459;28;20052;-71
2023/01/28 11:42:56;;;;;;;;;;;4.90;99.90;;;;;;5066428;28;20051;-71
2023/01/28 11:45:40;;;;;;;7.63;3.50;;;4.90;99.90;;;;;;5075182;28;20000;-70
2023/01/28 11:48:12;;;;;;;7.18;3.35;;;4.90;99.90;;;;;;5061200;28;20310;-71
2023/01/28 11:50:56;;;;;;;7.95;4.13;;;4.90;99.90;;;;;;5065390;28;20041;-71
2023/01/28 11:53:49;;;;;;;7.47;4.15;;;5.00;99.90;;;;;;5065292;28;20071;-71
2023/01/28 11:56:40;;;;;;;7.97;4.15;;;5.00;99.90;;;;;;5053005;28;20041;-71
2023/01/28 11:59:20;;;;;;;7.90;4.22;;;5.10;99.90;;;;;;5064021;28;20117;-71
2023/01/28 12:01:51;;;;;;;7.07;3.72;;;5.20;99.90;;;;;;5065769;28;20217;-71
2023/01/28 12:04:46;;;;;;;8.65;3.60;;;5.20;99.90;;;;;;5063605;28;20044;-71
2023/01/28 12:07:17;;;;;;;8.48;3.53;;;5.30;99.90;;;;;;5073572;28;20071;-71
2023/01/28 12:09:52;;;;;;;6.43;3.20;;;5.30;99.90;;;;;;5064773;28;20048;-71
2023/01/28 12:12:51;;;;;;;6.32;3.45;;;5.20;99.90;;;;;;5065261;28;20120;-71
2023/01/28 12:15:40;;;;;;;6.10;3.50;;;5.20;99.90;;;;;;5057788;28;20140;-70
2023/01/28 12:19:02;;;;;;;8.98;3.83;;;5.20;99.90;;;;;;5064402;28;20068;-71
2023/01/28 12:21:43;;;;;;;6.75;3.55;;;5.10;99.90;;;;;;5024834;28;20252;-71
2023/01/28 12:24:20;;;;;;;6.28;3.42;;;5.00;99.90;;;;;;5054289;28;20604;-70
2023/01/28 12:27:24;;;;;;;5.65;2.78;;;5.00;99.90;;;;;;5063206;28;20403;-71
2023/01/28 12:30:18;;;;;;;5.68;3.05;;;5.00;99.90;;;;;;5022893;28;20124;-71
2023/01/28 12:33:05;;;;;;;10.43;4.05;;;5.20;99.90;;;;;;5072318;28;20043;-70
2023/01/28 12:36:05;;;;;;;5.63;2.67;;;5.40;99.90;;;;;;5062864;28;20117;-70
2023/01/28 12:38:34;;;;;;;6.28;3.25;;;5.60;99.90;;;;;;5056911;28;20067;-70
2023/01/28 12:41:13;;;;;;;5.35;2.95;;;5.80;99.90;;;;;;5066301;28;20381;-70
2023/01/28 12:43:52;;;;;;;6.97;2.72;;;5.90;99.90;;;;;;5072815;28;20048;-71
2023/01/28 12:46:28;;;;;;;5.90;2.95;;;6.00;99.90;;;;;;5050885;28;20044;-70
2023/01/28 12:49:09;;;;;;;6.10;3.25;;;6.00;99.90;;;;;;5066101;28;20036;-70
2023/01/28 12:52:15;;;;;;;6.43;3.20;;;6.10;99.90;;;;;;5069675;28;20414;-70
2023/01/28 12:54:52;;;;;;;6.68;3.13;;;6.20;99.90;;;;;;5013509;28;20049;-70
2023/01/28 12:57:23;;;;;;;4.97;3.05;;;6.30;99.90;;;;;;5068471;28;20118;-70
2023/01/28 13:00:00;;;;;;;7.03;3.92;;;6.30;99.90;;;;;;5061051;28;20049;-70
2023/01/28 13:02:33;;;;;;;7.07;3.50;;;6.30;99.90;;;;;;5072187;28;20541;-70
2023/01/28 13:05:11;;;;;;;8.73;3.67;;;6.40;99.90;;;;;;5069499;28;20363;-70
2023/01/28 13:07:50;;;;;;;8.27;3.67;;;6.50;99.90;;;;;;5072444;28;20111;-70
2023/01/28 13:10:25;;;;;;;9.07;3.97;;;6.60;99.90;;;;;;5063758;28;20044;-70
2023/01/28 13:12:52;;;;;;;6.82;3.80;;;6.50;99.90;;;;;;5074897;28;20044;-70
2023/01/28 13:15:19;;;;;;;8.55;4.15;;;6.40;99.90;;;;;;5068564;28;20525;-70
2023/01/28 13:17:57;;;;;;;;;;;6.30;99.90;;;;;;5066580;28;20052;-70
2023/01/28 13:20:46;;;;;;;6.53;3.53;;;6.20;99.90;;;;;;5068667;28;20015;-70
2023/01/28 13:23:30;;;;;;;8.38;3.60;;;6.30;99.90;;;;;;5065655;28;20045;-70
2023/01/28 13:25:56;;;;;;;7.13;3.67;;;6.40;99.90;;;;;;5064545;28;20498;-70
2023/01/28 13:33:33;;;;;;;5.90;3.33;;;6.50;99.90;;;;;;5065336;28;20041;-66
2023/01/28 13:36:08;;;;;;;8.73;3.45;;;6.50;99.90;;;;;;5061096;28;20123;-66
2023/01/28 13:38:35;;;;;;;5.65;2.85;;;6.50;99.90;;;;;;5063749;28;20035;-66
2023/01/28 13:41:05;;;;;;;6.57;3.17;;;6.60;99.90;;;;;;5058689;28;20409;-66
2023/01/28 13:43:38;;;;;;;5.15;2.70;;;6.70;99.90;;;;;;5070258;28;20059;-66
2023/01/28 13:46:11;;;;;;;6.70;3.67;;;6.80;99.90;;;;;;5060856;28;20040;-66
2023/01/28 13:48:44;;;;;;;9.60;4.47;;;6.90;99.90;;;;;;5066706;28;20041;-66
2023/01/28 13:51:21;;;;;;;7.30;3.17;;;6.90;99.90;;;;;;5070538;28;20042;-65
2023/01/28 13:53:57;;;;;;;5.50;2.95;;;6.80;99.90;;;;;;5069303;28;20048;-66
2023/01/28 13:56:48;;;;;;;5.90;3.28;;;6.70;99.90;;;;;;5062458;28;20044;-66
2023/01/28 13:59:23;;;;;;;6.05;2.92;;;6.50;99.90;;;;;;5068719;28;20048;-66
2023/01/28 14:02:38;;;;;;;8.25;4.03;;;6.40;99.90;;;;;;5062933;28;20131;-65